메인 페이지
METAR-TAF:

METAR-TAF

공항 :

엘알토 국제공항

라파스, 볼리비아

위도: 16-31S, 경도: 068-11W, 고도: 4058m

현재 날씨관측

예보는 39분 전, 11:00시(UTC)에 발표되었습니다.
여러 방향의 바람 2kt
온도 -1°C
습도 74%
기압 1037 hPa
시정 10km 이상
고도 400ft 상공 구름 조금

METAR: SLLP 201100Z VRB02KT 9999 FEW004 M01/M05 Q1037

시각: 07:39 (11:39 UTC)

예보

예보는 7 시간 39분 전, 04:00시(UTC)에 발표되었습니다.
예보 대상 시간: 20일 06시부터 21일 06시까지 (UTC)
여러 방향의 바람 2kt
시정 10km 이상
전환 중
20일 15시부터 20일 19시까지 (UTC)
12kt
고도 1700ft 상공 구름 조금
전환 중
21일 01시부터 21일 04시까지 (UTC)
동북동3kt

TAF: SLLP 200400Z 2006/2106 VRB02KT 9999 NSC TX18/2020Z TNM04/2010Z BECMG 2015/2019 28012KT FEW017 BECMG 2101/2104 07003KT

4,000개 이상의 공항 관측 자료 및 예보 (METAR 및 TAF 보고).

지도상에서 검색 가능한 기상관측소가 노란 점과 빨간 점으로 표시되어 있습니다.

기상관측소 명을 보려면 표시 위로 마우스를 이동하세요.

날씨 관측과 예보를 보려면 클릭하세요.

지도 변경 : 확대하려면 엑스 표시가 있는 녹색 버튼, 축소하려면 빼기 표시가 있는 녹색 버튼, 다음 페이지의 지도를 보려면 녹색 화살표를 클릭하세요.


METAR-TAF: